Time;durP1;ratioP1;P1;durP2;ratioP2;P2;SDS_P1;SDS_P2;PMS_P1;PMS_P2;Temp;Humidity;BMP_temperature;BMP_pressure;BME280_temperature;BME280_humidity;BME280_pressure;Samples;Min_cycle;Max_cycle;Signal;HPM_P1;HPM_P2
2021/09/02 00:01:56;;;;;;;11.95;7.25;;;;;;;13.82;100.00;97786.53;5056675;28;20030;-76
2021/09/02 00:04:23;;;;;;;12.05;7.45;;;;;;;13.82;100.00;97786.53;5074137;28;20020;-76
2021/09/02 00:06:49;;;;;;;15.02;7.75;;;;;;;13.78;100.00;97793.94;5056509;28;20028;-77
2021/09/02 00:09:14;;;;;;;13.25;6.30;;;;;;;13.71;100.00;97781.94;5056288;28;20038;-77
2021/09/02 00:11:40;;;;;;;8.48;5.90;;;;;;;13.66;100.00;97780.53;5056070;28;20522;-76
2021/09/02 00:14:05;;;;;;;9.93;6.65;;;;;;;13.73;100.00;97787.19;5074075;28;20098;-76
2021/09/02 00:16:31;;;;;;;13.45;5.68;;;;;;;13.65;99.37;97773.44;5037347;28;20091;-77
2021/09/02 00:18:56;;;;;;;9.65;6.32;;;;;;;13.71;100.00;97795.38;5074040;28;20384;-76
2021/09/02 00:21:22;;;;;;;8.10;5.80;;;;;;;13.68;99.11;97775.91;5052801;28;20397;-76
2021/09/02 00:23:47;;;;;;;11.73;4.95;;;;;;;13.55;97.91;97762.47;5073645;28;20411;-77
2021/09/02 00:26:13;;;;;;;12.32;5.82;;;;;;;13.78;96.52;97790.44;5073911;28;20090;-76
2021/09/02 00:28:39;;;;;;;16.73;5.57;;;;;;;13.63;97.46;97767.31;5073788;28;20028;-77
2021/09/02 00:31:05;;;;;;;9.88;6.03;;;;;;;13.71;100.00;97790.00;5073726;28;20029;-76
2021/09/02 00:33:30;;;;;;;11.00;6.57;;;;;;;13.64;100.00;97787.84;5053919;28;20123;-76
2021/09/02 00:35:56;;;;;;;10.45;7.07;;;;;;;13.41;100.00;97771.50;5073904;28;20036;-76
2021/09/02 00:38:21;;;;;;;10.38;7.13;;;;;;;13.38;100.00;97763.66;5073581;28;20028;-76
2021/09/02 00:40:47;;;;;;;12.15;6.25;;;;;;;13.43;100.00;97780.31;5055485;28;20089;-76
2021/09/02 00:43:13;;;;;;;10.20;6.63;;;;;;;13.35;100.00;97784.53;5055729;28;20036;-76
2021/09/02 00:45:38;;;;;;;14.52;8.70;;;;;;;13.19;100.00;97768.59;5055588;28;20029;-76
2021/09/02 00:48:04;;;;;;;16.85;9.13;;;;;;;13.22;100.00;97771.06;5055638;28;20035;-76
2021/09/02 00:50:30;;;;;;;15.30;9.20;;;;;;;13.11;100.00;97757.50;5073308;28;20040;-76
2021/09/02 00:53:00;;;;;;;24.45;10.30;;;;;;;13.09;100.00;97758.56;5055516;28;20122;-76
2021/09/02 00:55:26;;;;;;;19.88;10.05;;;;;;;12.95;100.00;97749.59;5052175;28;20512;-76
2021/09/02 00:57:52;;;;;;;14.52;10.05;;;;;;;13.01;100.00;97761.78;5055212;28;20029;-76
2021/09/02 01:00:17;;;;;;;18.02;9.40;;;;;;;12.83;100.00;97741.50;5055287;28;20064;-77
2021/09/02 01:02:45;;;;;;;19.15;10.50;;;;;;;12.87;100.00;97746.59;5055201;28;20036;-76
2021/09/02 01:05:12;;;;;;;17.30;10.20;;;;;;;12.93;100.00;97772.16;5038818;28;20028;-76
2021/09/02 01:07:38;;;;;;;17.67;10.32;;;;;;;12.90;100.00;97770.53;5055112;28;20484;-77
2021/09/02 01:10:05;;;;;;;19.83;10.98;;;;;;;12.85;100.00;97774.50;5071900;28;20031;-76
2021/09/02 01:12:45;;;;;;;15.20;9.98;;;;;;;12.83;100.00;97763.84;5073027;28;20462;-76
2021/09/02 01:15:15;;;;;;;16.88;10.95;;;;;;;12.77;100.00;97763.41;5055243;28;20033;-76
2021/09/02 01:17:42;;;;;;;17.70;10.43;;;;;;;12.76;100.00;97762.56;5036143;28;20033;-75
2021/09/02 01:20:09;;;;;;;19.25;11.07;;;;;;;12.75;100.00;97768.88;5051611;28;20033;-76
2021/09/02 01:22:35;;;;;;;18.60;10.48;;;;;;;12.68;100.00;97767.56;5051519;28;20101;-76
2021/09/02 01:25:06;;;;;;;15.60;10.93;;;;;;;12.73;100.00;97761.91;5038359;28;20435;-76
2021/09/02 01:27:32;;;;;;;18.38;10.68;;;;;;;12.74;100.00;97747.50;5055023;28;20036;-76
2021/09/02 01:29:59;;;;;;;23.13;10.90;;;;;;;12.72;100.00;97749.44;5055023;28;20399;-76
2021/09/02 01:32:31;;;;;;;18.30;10.32;;;;;;;12.62;100.00;97740.28;5038110;28;20028;-76
2021/09/02 01:34:58;;;;;;;19.10;10.80;;;;;;;12.61;100.00;97747.50;5037905;28;20119;-76
2021/09/02 01:37:24;;;;;;;17.10;10.20;;;;;;;12.54;100.00;97739.94;5054923;28;20024;-77
2021/09/02 01:39:50;;;;;;;17.48;9.30;;;;;;;12.66;100.00;97755.22;5037662;28;20028;-77
2021/09/02 01:42:16;;;;;;;14.32;9.68;;;;;;;12.65;100.00;97742.75;5037991;28;20032;-76
2021/09/02 01:44:42;;;;;;;16.50;8.55;;;;;;;12.75;100.00;97760.84;5054294;28;20056;-76
2021/09/02 01:47:27;;;;;;;13.07;8.82;;;;;;;12.68;100.00;97737.19;5054566;28;20029;-76
2021/09/02 01:49:53;;;;;;;18.73;9.82;;;;;;;12.66;100.00;97741.81;5054145;28;20048;-76
2021/09/02 01:52:21;;;;;;;18.15;9.68;;;;;;;12.66;100.00;97742.66;5072310;28;20121;-76
2021/09/02 01:54:47;;;;;;;17.42;10.07;;;;;;;12.54;100.00;97734.56;5054295;28;20016;-76
2021/09/02 01:57:15;;;;;;;16.83;10.55;;;;;;;12.60;100.00;97751.13;5054367;28;20024;-76
2021/09/02 01:59:40;;;;;;;18.75;11.07;;;;;;;12.55;100.00;97765.81;5051118;28;20017;-75
2021/09/02 02:02:06;;;;;;;20.33;10.52;;;;;;;12.48;100.00;97747.44;5072128;28;20533;-75
2021/09/02 02:04:32;;;;;;;15.93;10.18;;;;;;;12.44;100.00;97737.88;5054159;28;20020;-76
2021/09/02 02:06:57;;;;;;;23.00;11.45;;;;;;;12.40;100.00;97744.41;5037165;28;20036;-75
2021/09/02 02:09:23;;;;;;;22.25;12.27;;;;;;;12.43;100.00;97751.38;5071902;28;20020;-76
2021/09/02 02:11:48;;;;;;;18.42;9.77;;;;;;;12.40;100.00;97746.22;5053521;28;20062;-75
2021/09/02 02:14:14;;;;;;;20.58;11.60;;;;;;;12.39;100.00;97748.06;5053945;28;20107;-75
2021/09/02 02:16:40;;;;;;;19.05;11.25;;;;;;;12.35;100.00;97751.03;5037167;28;20462;-76
2021/09/02 02:19:05;;;;;;;17.05;10.73;;;;;;;12.25;100.00;97732.00;5037151;28;20503;-76
2021/09/02 02:21:31;;;;;;;15.93;9.95;;;;;;;12.25;100.00;97739.16;5071667;28;20031;-75
2021/09/02 02:23:56;;;;;;;17.10;10.07;;;;;;;12.21;100.00;97741.19;5052239;28;20059;-76
2021/09/02 02:26:22;;;;;;;14.13;9.52;;;;;;;12.15;100.00;97744.28;5050541;28;20503;-75
2021/09/02 02:28:47;;;;;;;18.17;9.95;;;;;;;12.11;100.00;97744.59;5050991;28;20059;-75
2021/09/02 02:31:13;;;;;;;18.85;10.73;;;;;;;12.01;100.00;97728.22;5053654;28;20032;-76
2021/09/02 02:33:38;;;;;;;24.13;10.50;;;;;;;12.09;100.00;97751.88;5053689;28;20050;-75
2021/09/02 02:36:04;;;;;;;20.52;10.80;;;;;;;12.12;100.00;97744.47;5071295;28;20035;-75
2021/09/02 02:38:30;;;;;;;14.60;10.43;;;;;;;12.18;100.00;97749.44;5053482;28;20066;-75
2021/09/02 02:40:56;;;;;;;26.58;10.02;;;;;;;12.20;100.00;97736.81;5071276;28;20047;-76
2021/09/02 02:43:21;;;;;;;17.20;9.98;;;;;;;12.05;100.00;97731.59;5071598;28;20017;-76
2021/09/02 02:45:47;;;;;;;16.73;10.88;;;;;;;12.13;100.00;97731.94;5071505;28;20111;-76
2021/09/02 02:48:12;;;;;;;23.55;10.73;;;;;;;12.04;100.00;97730.72;5053615;28;20070;-75
2021/09/02 02:50:38;;;;;;;17.33;10.23;;;;;;;11.97;100.00;97721.34;5071289;28;20024;-76
2021/09/02 02:53:03;;;;;;;21.23;10.18;;;;;;;12.09;100.00;97744.66;5053436;28;20121;-75
2021/09/02 02:55:29;;;;;;;14.07;9.73;;;;;;;12.10;100.00;97743.72;5053292;28;20021;-76
2021/09/02 02:57:55;;;;;;;13.68;8.77;;;;;;;12.12;100.00;97747.16;5053109;28;20036;-76
2021/09/02 03:00:21;;;;;;;17.40;9.43;;;;;;;11.89;100.00;97737.06;5071012;28;20035;-75
2021/09/02 03:02:46;;;;;;;16.23;9.35;;;;;;;11.95;100.00;97747.41;5071118;28;20020;-76
2021/09/02 03:05:12;;;;;;;22.33;8.85;;;;;;;11.93;100.00;97752.00;5049771;28;20583;-75
2021/09/02 03:07:38;;;;;;;15.60;8.27;;;;;;;11.87;100.00;97760.44;5048511;28;20496;-76
2021/09/02 03:10:05;;;;;;;22.40;10.02;;;;;;;11.62;100.00;97739.66;5036693;28;20056;-74
2021/09/02 03:12:31;;;;;;;19.80;9.77;;;;;;;11.65;100.00;97743.97;5049779;28;20021;-75
2021/09/02 03:14:56;;;;;;;16.08;9.30;;;;;;;11.73;100.00;97769.34;5047925;28;20044;-76
2021/09/02 03:17:22;;;;;;;18.13;9.95;;;;;;;11.62;100.00;97765.59;5049810;28;20025;-76
2021/09/02 03:19:48;;;;;;;14.15;8.90;;;;;;;11.66;100.00;97761.78;5046073;28;20028;-76
2021/09/02 03:22:14;;;;;;;17.00;9.50;;;;;;;11.62;100.00;97760.22;5070428;28;20044;-76
2021/09/02 03:24:39;;;;;;;12.40;8.88;;;;;;;11.63;100.00;97761.97;5051488;28;20016;-76
2021/09/02 03:27:05;;;;;;;15.90;8.90;;;;;;;11.56;100.00;97755.25;5073522;28;20043;-76
2021/09/02 03:29:30;;;;;;;20.85;8.85;;;;;;;11.57;100.00;97762.31;5074819;28;20055;-75
2021/09/02 03:31:56;;;;;;;16.33;9.32;;;;;;;11.56;100.00;97757.94;5074612;28;20115;-75
2021/09/02 03:34:21;;;;;;;15.05;9.02;;;;;;;11.70;100.00;97780.25;5075142;28;20048;-75
2021/09/02 03:36:47;;;;;;;18.88;8.68;;;;;;;11.71;100.00;97782.00;5053569;28;20029;-75
2021/09/02 03:39:13;;;;;;;21.52;9.73;;;;;;;11.68;100.00;97775.91;5055938;28;20409;-76
2021/09/02 03:41:42;;;;;;;19.20;8.73;;;;;;;11.73;100.00;97784.56;5057009;28;20020;-76
2021/09/02 03:44:08;;;;;;;17.35;8.88;;;;;;;11.62;100.00;97755.75;5074382;28;20024;-76
2021/09/02 03:46:34;;;;;;;15.18;8.88;;;;;;;11.62;100.00;97765.59;5074424;28;20541;-76
2021/09/02 03:48:59;;;;;;;21.90;9.88;;;;;;;11.56;100.00;97757.94;5074467;28;20459;-76
2021/09/02 03:51:25;;;;;;;21.40;8.75;;;;;;;11.59;100.00;97761.28;5074367;28;20028;-76
2021/09/02 03:53:50;;;;;;;17.45;9.20;;;;;;;11.63;100.00;97778.88;5056439;28;20020;-76
2021/09/02 03:56:16;;;;;;;17.10;8.60;;;;;;;11.59;100.00;97772.00;5055881;28;20028;-75
2021/09/02 03:58:41;;;;;;;16.00;8.27;;;;;;;11.55;100.00;97759.75;5074134;28;20031;-76
2021/09/02 04:01:07;;;;;;;23.92;9.82;;;;;;;11.59;100.00;97768.47;5056707;28;20036;-75
2021/09/02 04:03:32;;;;;;;14.35;8.20;;;;;;;11.44;100.00;97752.38;5053155;28;20025;-78
2021/09/02 04:05:58;;;;;;;11.43;7.60;;;;;;;11.38;100.00;97742.03;5042304;28;20051;-76
2021/09/02 04:08:24;;;;;;;17.25;8.18;;;;;;;11.42;100.00;97743.56;5066966;28;20031;-76
2021/09/02 04:10:49;;;;;;;17.00;9.15;;;;;;;11.62;100.00;97787.03;5040110;28;20027;-76
2021/09/02 04:13:15;;;;;;;25.23;9.50;;;;;;;11.64;100.00;97771.69;5056961;28;20054;-76
2021/09/02 04:15:40;;;;;;;17.02;10.07;;;;;;;11.60;100.00;97765.66;5056750;28;20528;-76
2021/09/02 04:18:06;;;;;;;17.60;8.75;;;;;;;11.70;100.00;97774.03;5057025;28;20051;-77
2021/09/02 04:20:31;;;;;;;23.30;9.63;;;;;;;11.76;100.00;97777.19;5074575;28;20027;-75
2021/09/02 04:22:57;;;;;;;18.90;8.23;;;;;;;11.82;100.00;97784.84;5035932;28;20052;-75
2021/09/02 04:25:22;;;;;;;21.33;8.73;;;;;;;11.82;100.00;97762.53;5053956;28;20017;-76
2021/09/02 04:27:48;;;;;;;13.00;7.60;;;;;;;11.92;100.00;97769.91;5052820;28;20024;-76
2021/09/02 04:30:14;;;;;;;13.85;8.00;;;;;;;12.03;100.00;97781.78;5052619;28;20035;-76
2021/09/02 04:32:42;;;;;;;20.58;8.27;;;;;;;11.92;100.00;97753.81;5047947;28;20111;-80
2021/09/02 04:35:09;;;;;;;23.35;8.38;;;;;;;12.08;100.00;97787.69;5050870;28;20104;-82
2021/09/02 04:37:39;;;;;;;15.30;8.20;;;;;;;12.20;100.00;97792.25;5047889;28;20489;-83
2021/09/02 04:40:06;;;;;;;30.13;9.30;;;;;;;12.27;100.00;97791.78;5030567;28;20040;-80
2021/09/02 04:42:32;;;;;;;21.70;8.77;;;;;;;12.07;100.00;97749.28;5046877;28;20062;-80
2021/09/02 04:44:59;;;;;;;20.92;9.55;;;;;;;12.55;100.00;97809.59;5050701;28;20029;-76
2021/09/02 04:47:25;;;;;;;30.17;9.45;;;;;;;12.55;100.00;97800.72;5051744;28;20039;-75
2021/09/02 04:49:50;;;;;;;25.52;10.10;;;;;;;12.77;100.00;97817.09;5051780;28;20024;-77
2021/09/02 04:52:16;;;;;;;31.38;10.60;;;;;;;12.83;100.00;97814.00;5051859;28;20025;-75
2021/09/02 04:54:42;;;;;;;27.75;9.55;;;;;;;12.93;100.00;97812.44;5052310;28;20536;-75
2021/09/02 04:57:07;;;;;;;25.52;10.55;;;;;;;13.09;100.00;97812.28;5034347;28;20041;-75
2021/09/02 04:59:33;;;;;;;24.08;11.32;;;;;;;13.30;100.00;97821.56;5051715;28;20040;-75
2021/09/02 05:01:59;;;;;;;27.98;9.13;;;;;;;13.43;100.00;97826.00;5053265;28;20087;-77
2021/09/02 05:04:24;;;;;;;24.88;10.23;;;;;;;13.59;100.00;97828.50;5052613;28;20026;-75
2021/09/02 05:06:50;;;;;;;23.73;8.93;;;;;;;13.66;100.00;97820.88;5050977;28;20028;-77
2021/09/02 05:09:15;;;;;;;29.50;8.40;;;;;;;13.80;99.25;97827.00;5050890;28;20036;-76
2021/09/02 05:11:41;;;;;;;32.53;9.52;;;;;;;13.76;98.05;97814.72;5050708;28;20029;-75
2021/09/02 05:14:06;;;;;;;27.83;8.85;;;;;;;13.83;97.55;97810.66;5050948;28;20044;-78
2021/09/02 05:16:32;;;;;;;22.45;8.20;;;;;;;13.95;97.82;97827.72;5034861;28;20060;-75
2021/09/02 05:18:57;;;;;;;19.77;7.85;;;;;;;14.07;95.45;97840.31;5047755;28;20021;-75
2021/09/02 05:21:23;;;;;;;14.93;7.22;;;;;;;14.03;94.42;97818.13;5048071;28;20033;-76
2021/09/02 05:23:48;;;;;;;19.20;7.95;;;;;;;14.19;93.57;97820.59;5052895;28;20109;-75
2021/09/02 05:26:14;;;;;;;23.02;10.32;;;;;;;14.21;92.76;97805.22;5072548;28;20032;-75
2021/09/02 05:28:39;;;;;;;22.55;7.40;;;;;;;14.29;92.86;97829.72;5072477;28;20052;-75
2021/09/02 05:31:05;;;;;;;26.63;7.63;;;;;;;14.75;90.71;97832.63;5071769;28;20039;-76
2021/09/02 05:33:30;;;;;;;16.55;6.78;;;;;;;16.34;81.97;97827.44;5050575;28;20033;-76
2021/09/02 05:35:56;;;;;;;11.82;6.03;;;;;;;18.52;69.64;97828.53;5066268;28;20054;-77
2021/09/02 05:38:21;;;;;;;15.65;6.45;;;;;;;18.92;65.74;97837.50;5054537;28;20173;-76
2021/09/02 05:40:47;;;;;;;19.23;6.28;;;;;;;20.12;60.27;97828.09;5072390;28;20029;-76
2021/09/02 05:43:13;;;;;;;17.10;7.63;;;;;;;20.62;58.25;97837.63;5072151;28;20035;-76
2021/09/02 05:45:38;;;;;;;19.80;7.05;;;;;;;20.64;56.83;97838.31;5037944;28;20024;-76
2021/09/02 05:48:04;;;;;;;16.25;6.18;;;;;;;20.08;57.89;97842.94;5053476;28;20028;-76
2021/09/02 05:50:30;;;;;;;12.55;5.88;;;;;;;21.90;53.38;97810.09;5053339;28;20079;-77
2021/09/02 05:52:55;;;;;;;17.50;5.68;;;;;;;23.54;48.58;97836.09;5050523;28;20033;-77
2021/09/02 05:55:21;;;;;;;17.40;5.72;;;;;;;25.14;44.70;97841.50;5052164;28;20119;-77
2021/09/02 05:57:47;;;;;;;23.42;6.90;;;;;;;26.37;42.18;97836.69;5072539;28;20024;-77
2021/09/02 06:00:13;;;;;;;19.17;4.75;;;;;;;27.22;39.12;97822.50;5054343;28;20044;-77
2021/09/02 06:02:39;;;;;;;28.25;5.57;;;;;;;27.58;38.90;97834.38;5037709;28;20086;-77
2021/09/02 06:05:06;;;;;;;16.13;5.30;;;;;;;28.70;37.04;97827.97;5054199;28;20032;-77
2021/09/02 06:07:31;;;;;;;17.75;6.03;;;;;;;29.40;35.63;97813.97;5054027;28;20031;-77
2021/09/02 06:09:57;;;;;;;21.55;6.45;;;;;;;30.41;33.78;97829.44;5072123;28;20435;-77
2021/09/02 06:12:22;;;;;;;19.90;5.63;;;;;;;30.88;32.63;97813.66;5052830;28;20420;-77
2021/09/02 06:14:48;;;;;;;15.48;5.03;;;;;;;30.91;32.22;97802.16;5054302;28;20024;-77
2021/09/02 06:17:13;;;;;;;21.23;6.05;;;;;;;30.82;32.26;97804.31;5071759;28;20039;-77
2021/09/02 06:19:39;;;;;;;8.57;4.30;;;;;;;31.92;30.27;97815.13;5072510;28;20030;-77
2021/09/02 06:22:04;;;;;;;15.75;5.20;;;;;;;32.17;29.98;97809.66;5071925;28;20048;-77
2021/09/02 06:24:30;;;;;;;9.77;7.10;;;;;;;31.89;29.17;97801.75;5053693;28;20515;-77
2021/09/02 06:26:55;;;;;;;9.23;4.55;;;;;;;29.79;31.81;97801.31;5034573;28;20412;-77
2021/09/02 06:29:21;;;;;;;17.85;10.88;;;;;;;29.08;33.40;97819.28;5052202;28;20392;-77
2021/09/02 06:31:47;;;;;;;16.83;8.35;;;;;;;30.54;31.51;97812.03;5072090;28;20093;-77
2021/09/02 06:34:12;;;;;;;13.07;5.55;;;;;;;31.68;30.09;97811.25;5050724;28;20522;-76
2021/09/02 06:36:38;;;;;;;14.20;5.22;;;;;;;32.42;28.67;97804.13;5071686;28;20036;-76
2021/09/02 06:39:04;;;;;;;13.07;5.25;;;;;;;32.86;28.56;97797.50;5050526;28;20408;-76
2021/09/02 06:41:29;;;;;;;8.60;4.80;;;;;;;31.87;29.53;97808.56;5036360;28;20121;-77
2021/09/02 06:43:55;;;;;;;10.57;4.47;;;;;;;32.17;29.56;97809.66;5053591;28;20020;-75
2021/09/02 06:46:20;;;;;;;6.88;3.80;;;;;;;31.98;28.35;97817.00;5034658;28;20033;-76
2021/09/02 06:48:46;;;;;;;5.95;3.92;;;;;;;32.84;27.50;97811.59;5037152;28;20036;-76
2021/09/02 06:51:11;;;;;;;6.28;3.60;;;;;;;32.41;27.69;97817.13;5071649;28;20845;-75
2021/09/02 06:53:37;;;;;;;9.52;4.10;;;;;;;33.51;26.92;97815.31;5053270;28;20099;-77
2021/09/02 06:56:02;;;;;;;28.85;4.47;;;;;;;33.47;27.21;97822.44;5071513;28;20062;-77
2021/09/02 06:58:28;;;;;;;18.63;4.70;;;;;;;33.09;28.11;97814.34;5052216;28;20083;-77
2021/09/02 07:00:53;;;;;;;13.13;5.25;;;;;;;33.00;28.20;97812.94;5071333;28;20108;-77
2021/09/02 07:03:19;;;;;;;6.82;4.57;;;;;;;33.40;27.76;97825.28;5052958;28;20484;-76
2021/09/02 07:05:45;;;;;;;12.23;4.90;;;;;;;34.49;26.24;97821.34;5050143;28;20079;-78
2021/09/02 07:08:10;;;;;;;5.35;3.97;;;;;;;35.80;24.73;97819.66;5046346;28;20476;-77
2021/09/02 07:10:36;;;;;;;19.10;3.63;;;;;;;36.44;23.66;97814.72;5070812;28;20025;-76
2021/09/02 07:13:03;;;;;;;5.95;3.90;;;;;;;35.58;24.31;97810.31;5053483;28;20032;-76
2021/09/02 07:15:29;;;;;;;7.30;3.33;;;;;;;34.63;24.91;97818.13;5053282;28;20103;-77
2021/09/02 07:17:54;;;;;;;12.38;3.75;;;;;;;35.18;24.96;97810.28;5071778;28;20040;-77
2021/09/02 07:20:20;;;;;;;5.55;3.53;;;;;;;33.17;26.73;97825.13;5050518;28;20107;-77
2021/09/02 07:22:46;;;;;;;5.70;3.08;;;;;;;31.33;28.52;97829.25;5050153;28;20135;-77
2021/09/02 07:25:11;;;;;;;10.93;3.20;;;;;;;32.71;27.65;97829.22;5051452;28;20021;-77
2021/09/02 07:27:37;;;;;;;6.20;3.30;;;;;;;34.52;25.43;97838.38;5070466;28;20025;-77
2021/09/02 07:30:04;;;;;;;7.43;3.40;;;;;;;35.75;24.18;97816.75;5071356;28;20126;-77
2021/09/02 07:32:30;;;;;;;6.78;2.85;;;;;;;36.61;23.10;97807.22;5070980;28;20039;-78
2021/09/02 07:34:56;;;;;;;5.40;2.85;;;;;;;35.96;22.64;97812.44;5049803;28;20025;-78
2021/09/02 07:37:22;;;;;;;3.53;2.97;;;;;;;35.96;22.56;97806.03;5049744;28;20058;-77
2021/09/02 07:39:47;;;;;;;4.03;2.53;;;;;;;35.70;22.86;97808.31;5070962;28;20115;-77
2021/09/02 07:42:13;;;;;;;6.13;2.92;;;;;;;36.58;22.08;97812.47;5050133;28;20028;-77
2021/09/02 07:44:38;;;;;;;4.82;3.28;;;;;;;37.44;21.13;97804.28;5051114;28;20109;-78
2021/09/02 07:47:05;;;;;;;3.90;2.72;;;;;;;37.36;20.99;97803.88;5032953;28;20056;-78
2021/09/02 07:49:30;;;;;;;6.35;2.28;;;;;;;36.51;21.59;97807.03;5031857;28;20116;-78
2021/09/02 07:51:56;;;;;;;3.08;2.13;;;;;;;37.29;20.41;97801.28;5049760;28;20067;-78
2021/09/02 07:54:21;;;;;;;3.15;2.20;;;;;;;37.67;20.33;97796.75;5051129;28;20048;-77
2021/09/02 07:56:47;;;;;;;3.38;2.22;;;;;;;37.95;20.18;97805.78;5049677;28;20031;-77
2021/09/02 07:59:12;;;;;;;2.65;2.10;;;;;;;37.39;20.65;97797.78;5045300;28;20039;-77
2021/09/02 08:01:38;;;;;;;3.10;2.40;;;;;;;37.35;20.91;97796.59;5051231;28;20550;-77
2021/09/02 08:04:04;;;;;;;4.63;2.38;;;;;;;37.98;20.27;97807.19;5033171;28;20017;-76
2021/09/02 08:06:29;;;;;;;4.40;2.50;;;;;;;37.33;20.93;97801.59;5067956;28;20032;-77
2021/09/02 08:08:55;;;;;;;10.60;2.70;;;;;;;35.77;22.28;97797.88;5049641;28;20029;-77
2021/09/02 08:11:21;;;;;;;4.25;2.47;;;;;;;34.91;23.81;97808.22;5026807;28;20074;-77
2021/09/02 08:13:46;;;;;;;4.20;2.88;;;;;;;34.10;24.38;97800.63;5056384;28;20043;-77
2021/09/02 08:16:12;;;;;;;2.53;2.25;;;;;;;34.18;24.21;97803.03;5074424;28;20051;-77
2021/09/02 08:18:37;;;;;;;6.75;2.72;;;;;;;35.07;22.89;97799.94;5074189;28;20495;-78
2021/09/02 08:21:03;;;;;;;6.30;2.22;;;;;;;35.97;22.11;97788.19;5056494;28;20089;-77
2021/09/02 08:23:28;;;;;;;13.40;3.17;;;;;;;34.47;24.03;97798.50;5036083;28;20131;-78
2021/09/02 08:25:54;;;;;;;6.45;3.13;;;;;;;35.47;23.20;97794.44;5036987;28;20071;-77
2021/09/02 08:28:20;;;;;;;3.40;2.47;;;;;;;35.41;22.63;97792.63;5048781;28;20040;-78
2021/09/02 08:30:45;;;;;;;5.22;2.90;;;;;;;35.61;23.11;97797.81;5055334;28;20025;-77
2021/09/02 08:33:11;;;;;;;4.50;2.60;;;;;;;34.50;23.97;97792.47;5074145;28;20090;-77
2021/09/02 08:35:37;;;;;;;3.72;2.20;;;;;;;34.42;23.59;97796.47;5055870;28;20037;-77
2021/09/02 08:38:05;;;;;;;5.80;2.40;;;;;;;34.48;23.97;97786.31;5074080;28;20081;-77
2021/09/02 08:40:34;;;;;;;6.45;3.03;;;;;;;35.58;22.94;97785.25;5056283;28;20036;-77
2021/09/02 08:43:00;;;;;;;7.70;2.60;;;;;;;32.32;25.74;97787.16;5052985;28;20039;-77
2021/09/02 08:45:27;;;;;;;4.43;2.38;;;;;;;30.47;28.28;97800.97;5040146;28;20403;-77
2021/09/02 08:47:53;;;;;;;4.80;3.00;;;;;;;32.07;26.91;97787.16;5040456;28;20052;-76
2021/09/02 08:50:23;;;;;;;2.97;2.38;;;;;;;33.67;24.62;97806.38;5077631;28;20078;-76
2021/09/02 08:52:50;;;;;;;3.35;2.20;;;;;;;33.66;24.36;97805.53;5068120;28;20032;-76
2021/09/02 08:55:16;;;;;;;2.22;2.00;;;;;;;34.33;23.38;97795.94;5059217;28;20047;-77
2021/09/02 08:57:42;;;;;;;4.50;2.85;;;;;;;34.60;23.49;97801.09;5077240;28;20046;-76
2021/09/02 09:00:08;;;;;;;4.97;2.90;;;;;;;35.04;23.58;97788.50;5056686;28;20499;-76
2021/09/02 09:02:34;;;;;;;3.63;2.50;;;;;;;33.14;25.34;97795.94;5039311;28;20033;-76
2021/09/02 09:05:00;;;;;;;5.38;2.97;;;;;;;31.36;27.79;97795.63;5039429;28;20476;-76
2021/09/02 09:07:34;;;;;;;5.38;2.20;;;;;;;29.95;29.83;97800.94;5065560;28;20045;-76
2021/09/02 09:10:00;;;;;;;6.13;2.15;;;;;;;28.93;31.02;97800.16;5058927;28;20514;-77
2021/09/02 09:12:38;;;;;;;4.28;2.30;;;;;;;28.52;31.74;97798.19;5039789;28;20039;-78
2021/09/02 09:15:07;;;;;;;3.72;2.58;;;;;;;28.78;31.09;97802.19;5076024;28;20111;-80
2021/09/02 09:17:33;;;;;;;6.88;2.20;;;;;;;28.46;31.80;97793.50;5066509;28;20028;-79
2021/09/02 09:19:59;;;;;;;5.13;2.70;;;;;;;28.71;31.29;97791.13;5082866;28;20047;-79
2021/09/02 09:22:27;;;;;;;2.70;2.28;;;;;;;29.22;31.48;97805.38;5069950;28;20044;-79
2021/09/02 09:24:58;;;;;;;3.90;2.30;;;;;;;29.00;31.51;97798.28;5069326;28;20025;-79
2021/09/02 09:27:32;;;;;;;5.80;3.27;;;;;;;28.60;32.03;97799.09;5080391;28;20027;-79
2021/09/02 09:30:09;;;;;;;5.20;2.85;;;;;;;28.47;32.10;97802.59;5079931;28;20269;-79
2021/09/02 09:32:55;;;;;;;4.07;2.35;;;;;;;28.08;32.32;97803.16;5081781;28;20039;-79
2021/09/02 09:35:25;;;;;;;3.80;1.95;;;;;;;28.40;32.14;97805.31;5078010;28;20032;-79
2021/09/02 09:38:15;;;;;;;3.30;2.55;;;;;;;28.72;31.92;97803.88;5045425;28;20037;-79
2021/09/02 09:40:51;;;;;;;6.18;2.97;;;;;;;28.82;32.13;97798.84;5062659;28;20032;-79
2021/09/02 09:43:22;;;;;;;7.15;2.70;;;;;;;30.94;29.26;97786.03;5058638;28;20415;-78
2021/09/02 09:45:48;;;;;;;3.47;2.77;;;;;;;32.36;27.49;97785.63;5060354;28;20027;-77
2021/09/02 09:48:19;;;;;;;5.65;2.45;;;;;;;30.31;29.14;97787.56;5078713;28;20064;-78
2021/09/02 09:50:46;;;;;;;2.85;2.15;;;;;;;29.44;30.71;97781.31;5085942;28;20412;-78
2021/09/02 09:53:26;;;;;;;7.72;2.88;;;;;;;28.97;32.80;97790.44;5065208;28;20033;-78
2021/09/02 09:55:56;;;;;;;3.40;2.80;;;;;;;28.48;32.54;97785.91;5060290;28;20048;-79
2021/09/02 09:58:23;;;;;;;12.00;2.95;;;;;;;28.34;32.80;97773.09;5065957;28;20039;-77
2021/09/02 10:00:56;;;;;;;7.13;3.03;;;;;;;27.72;33.16;97778.44;5052550;28;20039;-77
2021/09/02 10:03:22;;;;;;;5.22;2.75;;;;;;;26.57;35.30;97800.47;5068600;28;20098;-78
2021/09/02 10:05:48;;;;;;;4.28;2.70;;;;;;;26.99;35.38;97797.91;5067107;28;20035;-79
2021/09/02 10:08:15;;;;;;;5.03;2.67;;;;;;;27.07;35.36;97808.75;5068562;28;20055;-79
2021/09/02 10:10:41;;;;;;;5.55;2.33;;;;;;;26.29;36.90;97792.88;5062314;28;20131;-77
2021/09/02 10:13:07;;;;;;;3.10;2.25;;;;;;;27.05;36.00;97801.78;5076347;28;20436;-78
2021/09/02 10:15:32;;;;;;;4.20;2.58;;;;;;;28.09;34.55;97793.84;5061207;28;20025;-80
2021/09/02 10:17:58;;;;;;;4.65;2.35;;;;;;;29.15;32.55;97793.47;5062617;28;20498;-78
2021/09/02 10:20:25;;;;;;;7.93;3.17;;;;;;;29.51;32.66;97804.22;5062514;28;20042;-78
2021/09/02 10:22:55;;;;;;;4.97;2.50;;;;;;;29.91;30.11;97772.06;5060873;28;20052;-78
2021/09/02 10:25:31;;;;;;;8.30;2.85;;;;;;;29.28;31.40;97792.72;5061476;28;20017;-78
2021/09/02 10:28:10;;;;;;;13.07;3.10;;;;;;;28.40;32.88;97798.94;5076624;28;20151;-76
2021/09/02 10:30:43;;;;;;;2.85;2.28;;;;;;;28.79;31.92;97792.88;5056748;28;20033;-77
2021/09/02 10:33:35;;;;;;;8.50;4.88;;;;;;;29.28;31.73;97793.56;5053506;28;20119;-78
2021/09/02 10:36:25;;;;;;;4.20;2.60;;;;;;;28.28;32.31;97790.41;5043909;28;20024;-77
2021/09/02 10:38:56;;;;;;;5.85;2.63;;;;;;;29.52;29.86;97784.72;5062283;28;20489;-78
2021/09/02 10:41:47;;;;;;;4.63;3.33;;;;;;;30.37;30.00;97775.66;5037711;28;20085;-79
2021/09/02 10:44:16;;;;;;;4.60;2.90;;;;;;;32.35;26.76;97768.16;5050316;28;20496;-83
2021/09/02 10:46:53;;;;;;;17.98;3.58;;;;;;;34.44;23.81;97763.72;5033435;28;20055;-82
2021/09/02 10:49:36;;;;;;;10.35;3.20;;;;;;;35.20;23.11;97762.69;5034404;28;20025;-81
2021/09/02 10:52:04;;;;;;;11.57;3.00;;;;;;;34.57;23.03;97745.94;5030736;28;20063;-80
2021/09/02 10:54:35;;;;;;;3.03;2.25;;;;;;;36.40;21.83;97750.25;5053688;28;20466;-80
2021/09/02 10:57:03;;;;;;;2.20;2.00;;;;;;;38.41;19.79;97759.53;5036906;28;20040;-80
2021/09/02 10:59:49;;;;;;;2.42;2.03;;;;;;;38.17;20.30;97757.34;5050090;28;20029;-81
2021/09/02 11:02:18;;;;;;;4.22;2.47;;;;;;;37.99;20.78;97759.41;5051132;28;20025;-82
2021/09/02 11:04:45;;;;;;;4.55;1.92;;;;;;;35.21;21.95;97745.78;5033962;28;20021;-83
2021/09/02 11:07:11;;;;;;;3.25;1.90;;;;;;;33.70;23.56;97753.16;5017565;28;20411;-82
2021/09/02 11:09:38;;;;;;;6.93;2.17;;;;;;;33.90;23.61;97761.19;5017462;28;20115;-82
2021/09/02 11:12:08;;;;;;;3.58;1.90;;;;;;;32.24;25.13;97757.81;5017460;28;20020;-81
2021/09/02 11:14:47;;;;;;;2.72;2.03;;;;;;;32.08;25.71;97769.47;5017606;28;20419;-81
2021/09/02 11:17:13;;;;;;;4.13;2.60;;;;;;;31.38;26.96;97762.25;5024280;28;20086;-88
2021/09/02 11:19:42;;;;;;;8.98;2.70;;;;;;;29.69;29.48;97773.28;5036603;28;20029;-82
2021/09/02 11:22:09;;;;;;;5.50;2.75;;;;;;;28.97;30.78;97780.28;5053476;28;20496;-82
2021/09/02 11:24:39;;;;;;;4.53;2.85;;;;;;;28.71;30.91;97774.63;5051285;28;20119;-82